createdAt,value
2023-04-15T00:01:12.153Z,0.70
2023-04-15T00:03:39.807Z,1.30
2023-04-15T00:06:07.045Z,0.93
2023-04-15T00:08:36.210Z,1.73
2023-04-15T00:11:05.922Z,1.20
2023-04-15T00:13:34.311Z,1.35
2023-04-15T00:16:02.349Z,1.33
2023-04-15T00:18:30.063Z,1.07
2023-04-15T00:20:57.241Z,1.00
2023-04-15T00:23:24.417Z,1.20
2023-04-15T00:25:52.147Z,1.10
2023-04-15T00:28:19.363Z,1.05
2023-04-15T00:30:46.426Z,0.80
2023-04-15T00:33:14.280Z,1.00
2023-04-15T00:35:41.561Z,1.10
2023-04-15T00:38:09.161Z,0.77
2023-04-15T00:40:36.299Z,0.77
2023-04-15T00:43:04.403Z,0.80
2023-04-15T00:45:31.975Z,1.00
2023-04-15T00:47:59.338Z,0.80
2023-04-15T00:50:26.410Z,0.70
2023-04-15T00:52:53.551Z,0.80
2023-04-15T00:55:21.018Z,0.90
2023-04-15T00:57:48.720Z,0.90
2023-04-15T01:00:16.687Z,1.17
2023-04-15T01:02:44.076Z,0.77
2023-04-15T01:05:11.988Z,0.95
2023-04-15T01:07:39.784Z,0.90
2023-04-15T01:10:08.241Z,0.88
2023-04-15T01:12:36.078Z,0.90
2023-04-15T01:15:06.647Z,1.02
2023-04-15T01:17:33.970Z,1.10
2023-04-15T01:20:01.244Z,1.00
2023-04-15T01:22:31.603Z,2.10
2023-04-15T01:25:10.249Z,1.80
2023-04-15T01:27:41.012Z,1.63
2023-04-15T01:30:09.247Z,1.40
2023-04-15T01:32:36.984Z,1.20
2023-04-15T01:35:04.178Z,1.00
2023-04-15T01:37:31.406Z,1.60
2023-04-15T01:39:58.591Z,1.60
2023-04-15T01:42:25.643Z,1.77
2023-04-15T01:44:52.809Z,1.40
2023-04-15T01:47:22.769Z,1.23
2023-04-15T01:49:52.830Z,1.35
2023-04-15T01:52:19.915Z,1.30
2023-04-15T01:54:47.222Z,1.15
2023-04-15T01:57:14.269Z,1.83
2023-04-15T01:59:42.325Z,1.30
2023-04-15T02:02:09.481Z,0.85
2023-04-15T02:04:36.538Z,1.23
2023-04-15T02:07:06.162Z,1.10
2023-04-15T02:09:33.283Z,0.93
2023-04-15T02:12:00.856Z,0.85
2023-04-15T02:14:28.989Z,0.90
2023-04-15T02:16:58.204Z,0.90
2023-04-15T02:19:25.377Z,1.00
2023-04-15T02:21:52.426Z,1.00
2023-04-15T02:24:19.584Z,0.70
2023-04-15T02:26:46.850Z,0.65
2023-04-15T02:29:18.600Z,1.10
2023-04-15T02:31:45.988Z,1.60
2023-04-15T02:34:14.483Z,1.50
2023-04-15T02:36:45.776Z,1.70
2023-04-15T02:39:14.919Z,1.40
2023-04-15T02:41:46.793Z,1.00
2023-04-15T02:44:14.721Z,1.00
2023-04-15T02:46:42.072Z,1.10
2023-04-15T02:49:09.078Z,1.17
2023-04-15T02:51:36.615Z,0.95
2023-04-15T02:54:07.091Z,1.40
2023-04-15T02:56:34.354Z,0.90
2023-04-15T02:59:02.079Z,1.33
2023-04-15T03:01:43.466Z,2.90
2023-04-15T03:04:11.842Z,6.90
2023-04-15T03:06:39.239Z,4.28
2023-04-15T03:09:08.950Z,3.15
2023-04-15T03:11:40.781Z,2.60
2023-04-15T03:14:09.880Z,1.70
2023-04-15T03:16:40.970Z,1.60
2023-04-15T03:19:08.275Z,1.70
2023-04-15T03:21:35.525Z,1.63
2023-04-15T03:24:03.228Z,1.83
2023-04-15T03:26:31.773Z,1.45
2023-04-15T03:29:02.651Z,1.33
2023-04-15T03:36:26.442Z,1.40
2023-04-15T03:49:31.934Z,1.10
2023-04-15T03:58:46.640Z,0.80
2023-04-15T04:11:10.313Z,0.98
2023-04-15T04:18:28.371Z,0.93
2023-04-15T04:20:55.639Z,0.80
2023-04-15T04:23:22.896Z,0.90
2023-04-15T04:39:59.802Z,0.47
2023-04-15T04:42:26.967Z,0.60
2023-04-15T04:44:54.090Z,0.60
2023-04-15T04:47:21.436Z,0.52
2023-04-15T04:49:48.561Z,0.60
2023-04-15T04:52:15.908Z,0.80
2023-04-15T04:54:44.268Z,0.60
2023-04-15T04:57:13.613Z,0.57
2023-04-15T05:04:34.724Z,0.80
2023-04-15T05:30:38.293Z,0.70
2023-04-15T05:37:44.364Z,1.38
2023-04-15T05:40:12.029Z,1.80
2023-04-15T05:42:38.985Z,1.40
2023-04-15T05:45:09.134Z,2.00
2023-04-15T05:47:37.771Z,12.23
2023-04-15T05:50:05.315Z,2.08
2023-04-15T05:52:32.883Z,0.80
2023-04-15T05:54:59.862Z,0.93
2023-04-15T05:57:27.081Z,1.33
2023-04-15T05:59:54.138Z,1.38
2023-04-15T06:02:21.288Z,1.60
2023-04-15T06:04:48.697Z,1.30
2023-04-15T06:07:15.826Z,1.60
2023-04-15T06:10:12.982Z,1.10
2023-04-15T06:14:19.680Z,1.13
2023-04-15T06:16:54.414Z,0.40
2023-04-15T06:19:21.511Z,0.50
2023-04-15T06:22:07.802Z,0.55
2023-04-15T06:24:37.094Z,0.40
2023-04-15T06:27:13.018Z,0.50
2023-04-15T06:29:40.011Z,0.50
2023-04-15T06:32:07.218Z,0.30
2023-04-15T06:34:34.324Z,0.38
2023-04-15T06:37:06.714Z,0.30
2023-04-15T06:39:45.001Z,0.35
2023-04-15T06:42:14.602Z,0.20
2023-04-15T06:45:03.902Z,0.30
2023-04-15T06:47:33.706Z,0.30
2023-04-15T06:50:04.803Z,0.30
2023-04-15T06:52:54.510Z,0.30
2023-04-15T06:55:42.304Z,0.30
2023-04-15T06:58:09.788Z,0.30
2023-04-15T07:00:45.829Z,0.30
2023-04-15T07:03:14.131Z,0.40
2023-04-15T07:05:41.568Z,0.43
2023-04-15T07:08:09.084Z,0.52
2023-04-15T07:10:36.421Z,0.40
2023-04-15T07:13:08.904Z,0.40
2023-04-15T07:15:36.559Z,0.37
2023-04-15T07:18:06.945Z,0.50
2023-04-15T07:20:34.029Z,0.50
2023-04-15T07:23:01.096Z,0.40
2023-04-15T07:25:28.264Z,0.40
2023-04-15T07:27:57.721Z,0.40
2023-04-15T07:30:25.062Z,0.30
2023-04-15T07:32:55.454Z,0.30
2023-04-15T07:35:22.658Z,0.30
2023-04-15T07:37:59.965Z,0.22
2023-04-15T07:40:27.270Z,0.30
2023-04-15T07:42:54.424Z,0.20
2023-04-15T07:45:21.806Z,0.30
2023-04-15T07:47:48.859Z,0.40
2023-04-15T07:50:17.304Z,0.80
2023-04-15T07:52:44.568Z,0.70
2023-04-15T07:55:11.560Z,0.50
2023-04-15T07:57:38.462Z,0.40
2023-04-15T08:00:07.678Z,0.60
2023-04-15T08:02:44.796Z,0.30
2023-04-15T08:05:13.291Z,0.30
2023-04-15T08:07:40.719Z,0.30
2023-04-15T08:10:08.640Z,0.47
2023-04-15T08:12:35.939Z,0.50
2023-04-15T08:15:03.392Z,0.57
2023-04-15T08:17:30.397Z,0.30
2023-04-15T08:19:57.354Z,0.60
2023-04-15T08:22:24.437Z,0.60
2023-04-15T08:24:51.455Z,0.40
2023-04-15T08:27:18.662Z,0.60
2023-04-15T08:29:45.780Z,0.60
2023-04-15T08:32:12.826Z,0.60
2023-04-15T08:34:39.810Z,0.60
2023-04-15T08:37:07.077Z,0.70
2023-04-15T08:39:33.963Z,0.70
2023-04-15T08:42:04.875Z,0.80
2023-04-15T08:44:35.056Z,0.90
2023-04-15T08:47:03.325Z,0.82
2023-04-15T08:49:30.704Z,0.98
2023-04-15T08:51:59.614Z,1.08
2023-04-15T08:54:28.184Z,0.90
2023-04-15T08:56:55.411Z,0.70
2023-04-15T08:59:22.651Z,0.90
2023-04-15T09:01:53.718Z,0.90
2023-04-15T09:04:20.791Z,1.52
2023-04-15T09:06:47.822Z,1.20
2023-04-15T09:09:15.057Z,0.80
2023-04-15T09:11:43.135Z,1.70
2023-04-15T09:14:12.970Z,1.58
2023-04-15T09:16:59.908Z,1.58
2023-04-15T09:19:27.943Z,1.60
2023-04-15T09:21:59.374Z,2.22
2023-04-15T09:24:37.496Z,1.73
2023-04-15T09:27:05.217Z,1.27
2023-04-15T09:29:32.398Z,1.20
2023-04-15T09:32:21.349Z,1.10
2023-04-15T09:34:48.498Z,1.08
2023-04-15T09:37:32.044Z,1.20
2023-04-15T09:39:59.743Z,1.35
2023-04-15T09:42:27.458Z,1.58
2023-04-15T09:44:55.957Z,1.00
2023-04-15T09:47:30.503Z,1.00
2023-04-15T09:50:02.388Z,0.90
2023-04-15T09:52:32.853Z,1.23
2023-04-15T09:55:00.953Z,1.38
2023-04-15T09:57:38.043Z,0.90
2023-04-15T10:00:08.209Z,0.60
2023-04-15T10:02:36.987Z,1.20
2023-04-15T10:05:04.692Z,1.00
2023-04-15T10:07:32.523Z,1.02
2023-04-15T10:10:04.592Z,0.90
2023-04-15T10:12:33.532Z,0.80
2023-04-15T10:15:07.952Z,0.98
2023-04-15T10:17:37.360Z,1.20
2023-04-15T10:20:05.956Z,1.00
2023-04-15T10:22:33.422Z,0.63
2023-04-15T10:25:01.324Z,4.20
2023-04-15T10:27:29.035Z,4.13
2023-04-15T10:30:04.129Z,1.65
2023-04-15T10:32:31.798Z,1.45
2023-04-15T10:34:59.480Z,1.00
2023-04-15T10:37:44.636Z,0.60
2023-04-15T10:40:38.899Z,0.93
2023-04-15T10:43:05.988Z,0.85
2023-04-15T10:45:37.167Z,0.98
2023-04-15T10:48:08.539Z,0.70
2023-04-15T10:50:39.532Z,0.65
2023-04-15T10:53:10.784Z,0.60
2023-04-15T10:55:37.784Z,0.70
2023-04-15T10:58:04.911Z,0.80
2023-04-15T11:00:33.177Z,0.90
2023-04-15T11:03:09.327Z,0.77
2023-04-15T11:05:39.626Z,0.77
2023-04-15T11:13:17.298Z,0.90
2023-04-15T11:15:45.427Z,1.03
2023-04-15T11:23:13.932Z,0.70
2023-04-15T11:25:41.987Z,0.77
2023-04-15T11:28:08.913Z,1.00
2023-04-15T11:32:08.934Z,1.10
2023-04-15T11:43:58.335Z,1.08
2023-04-15T11:46:32.026Z,1.20
2023-04-15T11:49:00.209Z,1.00
2023-04-15T11:51:32.249Z,1.10
2023-04-15T11:53:59.161Z,1.00
2023-04-15T11:56:27.698Z,1.23
2023-04-15T11:59:13.263Z,0.90
2023-04-15T12:01:42.360Z,1.00
2023-04-15T12:04:13.714Z,1.00
2023-04-15T12:06:41.338Z,1.10
2023-04-15T12:09:14.998Z,1.10
2023-04-15T12:11:58.327Z,1.60
2023-04-15T12:14:30.257Z,2.73
2023-04-15T12:17:03.048Z,6.47
2023-04-15T12:19:45.661Z,2.10
2023-04-15T12:22:16.933Z,1.30
2023-04-15T12:24:48.174Z,2.00
2023-04-15T12:27:16.970Z,1.70
2023-04-15T12:29:44.366Z,1.77
2023-04-15T12:32:21.026Z,1.05
2023-04-15T12:34:53.211Z,1.00
2023-04-15T12:37:20.388Z,1.38
2023-04-15T12:39:49.486Z,1.10
2023-04-15T12:42:17.839Z,1.88
2023-04-15T12:44:47.729Z,2.03
2023-04-15T12:47:15.055Z,2.10
2023-04-15T12:49:42.286Z,2.00
2023-04-15T12:52:09.297Z,1.07
2023-04-15T12:54:36.467Z,2.90
2023-04-15T12:57:06.836Z,1.67
2023-04-15T12:59:34.698Z,0.90
2023-04-15T13:02:05.555Z,1.17
2023-04-15T13:04:32.819Z,1.40
2023-04-15T13:06:59.854Z,0.93
2023-04-15T13:09:27.284Z,1.02
2023-04-15T13:11:54.604Z,0.80
2023-04-15T13:14:21.791Z,1.27
2023-04-15T13:16:48.787Z,1.40
2023-04-15T13:19:15.971Z,1.30
2023-04-15T13:21:43.022Z,1.00
2023-04-15T13:24:10.299Z,1.13
2023-04-15T13:26:38.166Z,1.13
2023-04-15T13:29:06.069Z,1.30
2023-04-15T13:31:33.049Z,1.20
2023-04-15T13:34:00.070Z,1.48
2023-04-15T13:36:27.502Z,2.10
2023-04-15T13:38:54.787Z,1.90
2023-04-15T13:41:24.866Z,1.60
2023-04-15T13:43:51.791Z,1.42
2023-04-15T13:46:18.722Z,1.10
2023-04-15T13:48:45.818Z,1.30
2023-04-15T13:51:12.706Z,1.48
2023-04-15T13:53:39.962Z,1.50
2023-04-15T13:56:08.459Z,1.00
2023-04-15T13:58:36.333Z,1.15
2023-04-15T14:01:05.848Z,1.42
2023-04-15T14:03:35.384Z,1.08
2023-04-15T14:06:02.710Z,1.00
2023-04-15T14:08:31.194Z,1.17
2023-04-15T14:10:58.199Z,1.13
2023-04-15T14:13:25.366Z,1.10
2023-04-15T14:15:52.307Z,1.13
2023-04-15T14:18:19.298Z,1.20
2023-04-15T14:20:46.529Z,1.13
2023-04-15T14:23:13.491Z,0.93
2023-04-15T14:25:40.678Z,1.02
2023-04-15T14:28:07.699Z,1.20
2023-04-15T14:30:35.327Z,1.40
2023-04-15T14:33:06.064Z,1.10
2023-04-15T14:35:33.376Z,1.00
2023-04-15T14:38:00.418Z,1.10
2023-04-15T14:40:27.514Z,1.30
2023-04-15T14:42:54.500Z,1.07
2023-04-15T14:45:21.590Z,1.17
2023-04-15T14:47:48.863Z,0.80
2023-04-15T14:50:16.153Z,1.20
2023-04-15T14:52:43.228Z,1.30
2023-04-15T14:55:13.956Z,1.10
2023-04-15T14:57:42.495Z,1.15
2023-04-15T15:00:13.752Z,1.20
2023-04-15T15:02:44.009Z,0.90
2023-04-15T15:05:12.428Z,1.10
2023-04-15T15:07:43.807Z,1.13
2023-04-15T15:10:13.567Z,0.95
2023-04-15T15:12:40.817Z,3.65
2023-04-15T15:17:54.026Z,2.70
2023-04-15T15:20:26.349Z,2.10
2023-04-15T15:22:57.941Z,2.78
2023-04-15T15:25:25.622Z,7.32
2023-04-15T15:27:52.930Z,1.67
2023-04-15T15:30:20.775Z,1.20
2023-04-15T15:32:48.495Z,1.90
2023-04-15T15:35:16.595Z,1.40
2023-04-15T15:37:44.204Z,2.05
2023-04-15T15:40:12.532Z,1.50
2023-04-15T15:42:42.268Z,1.35
2023-04-15T15:45:10.624Z,1.03
2023-04-15T15:47:42.157Z,1.20
2023-04-15T15:50:10.210Z,1.60
2023-04-15T15:52:40.992Z,1.70
2023-04-15T15:55:09.305Z,1.60
2023-04-15T15:57:39.658Z,1.70
2023-04-15T16:00:12.014Z,1.60
2023-04-15T16:03:05.187Z,1.60
2023-04-15T16:05:29.563Z,1.25
2023-04-15T16:07:57.620Z,1.50
2023-04-15T16:10:27.019Z,1.50
2023-04-15T16:12:58.810Z,1.90
2023-04-15T16:15:32.831Z,2.03
2023-04-15T16:18:06.039Z,1.90
2023-04-15T16:25:17.010Z,2.10
2023-04-15T16:32:46.664Z,3.70
2023-04-15T16:52:17.963Z,4.78
2023-04-15T17:04:43.294Z,3.53
2023-04-15T17:13:00.644Z,3.67
2023-04-15T17:15:34.337Z,3.60
2023-04-15T17:18:02.208Z,3.90
2023-04-15T17:20:31.149Z,4.90
2023-04-15T17:22:58.917Z,4.82
2023-04-15T17:45:53.692Z,4.35
2023-04-15T18:02:25.937Z,2.67
2023-04-15T18:04:54.086Z,2.72
2023-04-15T18:24:45.281Z,3.83
2023-04-15T18:27:17.924Z,3.87
2023-04-15T18:29:53.832Z,3.72
2023-04-15T19:02:14.107Z,3.60
2023-04-15T19:04:44.512Z,3.00
2023-04-15T19:07:13.698Z,2.80
2023-04-15T19:09:42.592Z,2.60
2023-04-15T19:12:12.544Z,3.93
2023-04-15T19:14:42.197Z,11.73
2023-04-15T19:17:09.537Z,5.03
2023-04-15T19:19:36.901Z,9.82
2023-04-15T19:22:08.446Z,12.27
2023-04-15T19:24:39.847Z,23.77
2023-04-15T19:27:07.108Z,21.67
2023-04-15T19:29:34.423Z,21.67
2023-04-15T19:32:01.778Z,18.50
2023-04-15T19:34:32.106Z,8.60
2023-04-15T19:36:59.248Z,10.73
2023-04-15T19:39:26.601Z,12.35
2023-04-15T19:41:55.449Z,10.73
2023-04-15T19:44:25.083Z,8.55
2023-04-15T19:46:53.774Z,7.00
2023-04-15T19:49:21.452Z,7.40
2023-04-15T19:51:50.504Z,8.02
2023-04-15T19:54:28.052Z,5.03
2023-04-15T20:00:40.418Z,4.38
2023-04-15T20:06:40.469Z,4.07
2023-04-15T20:16:23.820Z,3.33
2023-04-15T20:18:54.576Z,3.30
2023-04-15T20:21:24.495Z,3.33
2023-04-15T20:28:08.898Z,3.20
2023-04-15T20:30:43.126Z,2.75
2023-04-15T20:33:14.916Z,2.53
2023-04-15T20:35:46.874Z,4.90
2023-04-15T20:38:17.932Z,3.97
2023-04-15T20:40:45.004Z,3.20
2023-04-15T20:43:12.067Z,3.40
2023-04-15T20:45:39.279Z,3.67
2023-04-15T20:48:06.515Z,2.83
2023-04-15T20:50:33.593Z,4.70
2023-04-15T20:53:00.936Z,4.03
2023-04-15T20:55:30.212Z,3.50
2023-04-15T20:57:58.404Z,3.37
2023-04-15T21:00:25.514Z,3.25
2023-04-15T21:02:52.657Z,2.60
2023-04-15T21:05:19.830Z,2.83
2023-04-15T21:07:46.809Z,3.00
2023-04-15T21:10:16.824Z,2.50
2023-04-15T21:12:43.921Z,2.33
2023-04-15T21:15:14.007Z,2.20
2023-04-15T21:17:41.739Z,2.60
2023-04-15T21:20:09.264Z,2.88
2023-04-15T21:22:36.444Z,4.77
2023-04-15T21:25:03.700Z,2.67
2023-04-15T21:27:30.754Z,3.45
2023-04-15T21:29:57.713Z,2.78
2023-04-15T21:32:24.834Z,3.53
2023-04-15T21:34:51.827Z,3.03
2023-04-15T21:37:18.891Z,2.95
2023-04-15T21:39:45.878Z,3.30
2023-04-15T21:42:12.924Z,2.80
2023-04-15T21:44:39.997Z,2.60
2023-04-15T21:47:06.996Z,3.00
2023-04-15T21:49:34.110Z,2.95
2023-04-15T21:52:03.376Z,3.47
2023-04-15T21:54:31.195Z,2.60
2023-04-15T21:56:58.297Z,2.63
2023-04-15T21:59:25.313Z,4.07
2023-04-15T22:01:52.477Z,3.50
2023-04-15T22:04:19.624Z,3.35
2023-04-15T22:06:47.059Z,4.30
2023-04-15T22:09:14.577Z,5.80
2023-04-15T22:11:42.032Z,2.93
2023-04-15T22:14:09.374Z,2.80
2023-04-15T22:16:36.442Z,2.63
2023-04-15T22:19:05.858Z,2.50
2023-04-15T22:21:32.997Z,2.33
2023-04-15T22:24:37.250Z,2.10
2023-04-15T22:26:47.062Z,1.60
2023-04-15T22:29:14.035Z,2.20
2023-04-15T22:31:41.183Z,2.10
2023-04-15T22:34:08.693Z,2.25
2023-04-15T22:36:35.942Z,2.10
2023-04-15T22:39:03.074Z,1.95
2023-04-15T22:41:30.313Z,2.58
2023-04-15T22:43:57.282Z,2.05
2023-04-15T22:46:24.341Z,2.20
2023-04-15T22:48:51.385Z,2.20
2023-04-15T22:51:22.742Z,2.00
2023-04-15T22:53:50.501Z,2.22
2023-04-15T22:56:21.880Z,2.30
2023-04-15T22:58:50.087Z,2.20
2023-04-15T23:01:17.975Z,2.53
2023-04-15T23:03:56.490Z,2.25
2023-04-15T23:06:25.640Z,2.08
2023-04-15T23:08:54.521Z,2.05
2023-04-15T23:11:22.063Z,2.13
2023-04-15T23:13:50.761Z,2.10
2023-04-15T23:16:17.914Z,2.35
2023-04-15T23:18:45.040Z,2.40
2023-04-15T23:21:12.093Z,2.53
2023-04-15T23:23:39.195Z,2.65
2023-04-15T23:26:06.359Z,2.63
2023-04-15T23:28:33.406Z,2.50
2023-04-15T23:31:00.695Z,2.80
2023-04-15T23:33:32.691Z,3.00
2023-04-15T23:35:59.759Z,2.78
2023-04-15T23:38:26.837Z,3.20
2023-04-15T23:40:53.999Z,2.80
2023-04-15T23:43:21.005Z,2.88
2023-04-15T23:45:48.181Z,2.75
2023-04-15T23:48:15.187Z,2.63
2023-04-15T23:50:42.338Z,3.03
2023-04-15T23:53:09.354Z,3.08
2023-04-15T23:55:36.504Z,2.90
2023-04-15T23:58:06.082Z,3.20
